| time (UTC) | temp C | wind direction | speed KPH | gust KPH | rain 1hr cm | rain 24hr cm | rain mn cm | humidity % | barometer mb |
| 20260507122640 | 27 | 57 | 3.2 | 3.2 | 0.00 | 0.30 | 0.00 | 85 | 1009.4 |
| 20260507121529 | 27 | 14 | 3.2 | 6.4 | 0.00 | 0.33 | 0.00 | 85 | 1009.6 |
| 20260507120933 | 27 | 96 | 1.6 | 3.2 | 0.00 | 0.30 | 0.00 | 87 | 1009.3 |
| 20260507120533 | 26 | 354 | 3.2 | 3.2 | 0.00 | 0.30 | 0.00 | 87 | 1009.0 |
| 20260507120527 | 27 | 350 | 1.6 | 3.2 | 0.00 | 0.33 | 0.00 | 87 | 1009.4 |
| 20260507120333 | 26 | 318 | 1.6 | 3.2 | 0.00 | 0.30 | 0.00 | 88 | 1009.0 |
| 20260507120046 | 26 | 324 | 3.2 | 6.4 | 0.00 | 0.33 | 0.00 | 88 | 1009.4 |
| 20260507115023 | 26 | 333 | 6.4 | 9.7 | 0.00 | 0.33 | 0.00 | 89 | 1009.3 |
| 20260507114431 | 26 | 325 | 8.0 | 8.0 | 0.00 | 0.30 | 0.00 | 89 | 1008.9 |
| 20260507114041 | 26 | 342 | 4.8 | 8.0 | 0.00 | 0.33 | 0.00 | 90 | 1009.2 |
| 20260507113358 | 25 | 343 | 4.8 | 6.4 | 0.00 | 0.30 | 0.00 | 90 | 1008.8 |
| 20260507113039 | 25 | 339 | 4.8 | 6.4 | 0.00 | 0.33 | 0.00 | 91 | 1009.1 |
| 20260507112325 | 25 | 344 | 3.2 | 3.2 | 0.00 | 0.30 | 0.00 | 92 | 1008.6 |
| 20260507112016 | 25 | 330 | 4.8 | 6.4 | 0.00 | 0.33 | 0.00 | 92 | 1008.9 |
| 20260507111252 | 25 | 314 | 3.2 | 3.2 | 0.00 | 0.30 | 0.00 | 92 | 1008.5 |
| 20260507111034 | 25 | 331 | 4.8 | 8.0 | 0.00 | 0.33 | 0.00 | 93 | 1008.8 |
| 20260507110219 | 25 | 335 | 4.8 | 4.8 | 0.00 | 0.30 | 0.00 | 92 | 1008.5 |
| 20260507110031 | 25 | 341 | 4.8 | 8.0 | 0.00 | 0.33 | 0.00 | 92 | 1008.7 |
| 20260507105146 | 25 | 336 | 3.2 | 6.4 | 0.00 | 0.30 | 0.00 | 93 | 1008.2 |
| 20260507105029 | 25 | 343 | 4.8 | 8.0 | 0.00 | 0.33 | 0.00 | 93 | 1008.5 |
| 20260507104113 | 25 | 330 | 6.4 | 6.4 | 0.00 | 0.30 | 0.00 | 93 | 1008.2 |
| 20260507104027 | 25 | 349 | 4.8 | 8.0 | 0.00 | 0.33 | 0.00 | 93 | 1008.4 |
| 20260507103024 | 25 | 341 | 6.4 | 9.7 | 0.00 | 0.33 | 0.00 | 94 | 1008.4 |
| 20260507102023 | 25 | 349 | 3.2 | 4.8 | 0.00 | 0.33 | 0.00 | 95 | 1008.5 |
| 20260507101019 | 25 | 343 | 3.2 | 6.4 | 0.00 | 0.33 | 0.00 | 95 | 1008.5 |
| 20260507100934 | 25 | 334 | 3.2 | 4.8 | 0.00 | 0.30 | 0.00 | 95 | 1008.4 |
| 20260507100017 | 25 | 340 | 4.8 | 6.4 | 0.00 | 0.33 | 0.00 | 95 | 1008.4 |
| 20260507095901 | 25 | 349 | 3.2 | 4.8 | 0.00 | 0.30 | 0.00 | 95 | 1008.1 |
| 20260507095035 | 25 | 17 | 3.2 | 6.4 | 0.00 | 0.33 | 0.00 | 95 | 1008.3 |
| 20260507094828 | 25 | 354 | 1.6 | 3.2 | 0.00 | 0.30 | 0.00 | 95 | 1008.0 |
| 20260507094032 | 25 | 353 | 4.8 | 6.4 | 0.00 | 0.33 | 0.00 | 94 | 1008.3 |
| 20260507093755 | 25 | 346 | 3.2 | 4.8 | 0.00 | 0.30 | 0.00 | 94 | 1007.9 |
| 20260507093050 | 25 | 350 | 4.8 | 6.4 | 0.00 | 0.33 | 0.00 | 95 | 1008.2 |
| 20260507092722 | 25 | 348 | 3.2 | 4.8 | 0.00 | 0.30 | 0.00 | 95 | 1007.9 |
| 20260507092028 | 25 | 345 | 4.8 | 8.0 | 0.00 | 0.33 | 0.00 | 95 | 1008.3 |
| 20260507091025 | 25 | 335 | 6.4 | 8.0 | 0.00 | 0.33 | 0.00 | 96 | 1008.3 |
| 20260507090617 | 25 | 347 | 4.8 | 6.4 | 0.00 | 0.30 | 0.00 | 96 | 1008.0 |
| 20260507090043 | 25 | 9 | 3.2 | 4.8 | 0.00 | 0.33 | 0.00 | 97 | 1008.3 |
| 20260507085543 | 25 | 326 | 3.2 | 3.2 | 0.00 | 0.30 | 0.00 | 97 | 1007.9 |
| 20260507085020 | 25 | 352 | 1.6 | 4.8 | 0.00 | 0.33 | 0.00 | 97 | 1008.5 |
| 20260507084510 | 25 | 31 | 1.6 | 4.8 | 0.00 | 0.30 | 0.00 | 97 | 1008.3 |
| 20260507084039 | 25 | 105 | 1.6 | 3.2 | 0.00 | 0.33 | 0.00 | 97 | 1008.4 |
| 20260507083437 | 25 | 0 | 0.0 | 1.6 | 0.00 | 0.30 | 0.00 | 97 | 1008.1 |
| 20260507083036 | 25 | 19 | 1.6 | 3.2 | 0.00 | 0.33 | 0.00 | 97 | 1008.6 |
| 20260507082404 | 25 | 0 | 0.0 | 0.0 | 0.00 | 0.30 | 0.00 | 97 | 1008.2 |
| 20260507082054 | 25 | 1 | 1.6 | 3.2 | 0.00 | 0.33 | 0.00 | 97 | 1008.5 |
| 20260507081331 | 25 | 0 | 0.0 | 1.6 | 0.00 | 0.30 | 0.00 | 97 | 1008.1 |
| 20260507081031 | 25 | 13 | 0.0 | 3.2 | 0.00 | 0.33 | 0.00 | 97 | 1008.6 |
| 20260507080258 | 25 | 0 | 0.0 | 0.0 | 0.00 | 0.30 | 0.00 | 96 | 1008.4 |
| 20260507080028 | 25 | 350 | 0.0 | 3.2 | 0.00 | 0.33 | 0.00 | 96 | 1008.6 |
| 20260507075225 | 25 | 32 | 1.6 | 3.2 | 0.00 | 0.30 | 0.00 | 96 | 1008.6 |
| 20260507075026 | 25 | 6 | 1.6 | 4.8 | 0.00 | 0.33 | 0.00 | 96 | 1008.7 |
| 20260507074152 | 25 | 332 | 1.6 | 1.6 | 0.00 | 0.30 | 0.00 | 96 | 1008.5 |
| 20260507074024 | 25 | 356 | 1.6 | 3.2 | 0.00 | 0.33 | 0.00 | 96 | 1008.8 |
| 20260507073119 | 25 | 0 | 0.0 | 1.6 | 0.00 | 0.30 | 0.00 | 96 | 1008.7 |
| 20260507073022 | 25 | 53 | 3.2 | 4.8 | 0.00 | 0.33 | 0.00 | 96 | 1008.9 |
| 20260507072046 | 25 | 28 | 1.6 | 3.2 | 0.00 | 0.30 | 0.00 | 95 | 1008.8 |
| 20260507072019 | 25 | 3 | 1.6 | 3.2 | 0.00 | 0.33 | 0.00 | 95 | 1009.0 |
| 20260507071037 | 25 | 131 | 1.6 | 4.8 | 0.00 | 0.33 | 0.00 | 95 | 1009.1 |
| 20260507071013 | 25 | 0 | 0.0 | 1.6 | 0.00 | 0.30 | 0.00 | 95 | 1008.7 |
| 20260507070035 | 25 | 33 | 1.6 | 3.2 | 0.00 | 0.33 | 0.00 | 95 | 1009.4 |
| 20260507065940 | 25 | 0 | 0.0 | 1.6 | 0.00 | 0.30 | 0.00 | 95 | 1009.1 |
| 20260507065032 | 25 | 8 | 1.6 | 4.8 | 0.00 | 0.33 | 0.00 | 94 | 1009.4 |
| 20260507064029 | 26 | 5 | 1.6 | 4.8 | 0.00 | 0.33 | 0.00 | 93 | 1009.5 |
| 20260507063027 | 26 | 355 | 1.6 | 3.2 | 0.00 | 0.33 | 0.00 | 93 | 1009.7 |
| 20260507062801 | 25 | 358 | 1.6 | 3.2 | 0.00 | 0.30 | 0.00 | 93 | 1009.4 |
| 20260507062024 | 26 | 337 | 3.2 | 8.0 | 0.00 | 0.33 | 0.00 | 93 | 1009.5 |
| 20260507061728 | 25 | 337 | 1.6 | 3.2 | 0.00 | 0.30 | 0.00 | 93 | 1009.1 |
| 20260507061022 | 26 | 341 | 4.8 | 8.0 | 0.00 | 0.33 | 0.00 | 93 | 1009.6 |
| 20260507060655 | 25 | 335 | 6.4 | 6.4 | 0.00 | 0.30 | 0.00 | 93 | 1009.3 |
| 20260507060020 | 26 | 331 | 1.6 | 4.8 | 0.00 | 0.33 | 0.00 | 93 | 1009.8 |
| 20260507055622 | 25 | 346 | 1.6 | 1.6 | 0.00 | 0.30 | 0.00 | 92 | 1009.7 |
| 20260507055018 | 26 | 325 | 4.8 | 6.4 | 0.00 | 0.33 | 0.00 | 92 | 1009.9 |
| 20260507054549 | 25 | 335 | 4.8 | 6.4 | 0.00 | 0.30 | 0.00 | 92 | 1009.5 |
| 20260507054036 | 26 | 333 | 6.4 | 9.7 | 0.00 | 0.33 | 0.00 | 92 | 1010.0 |
| 20260507053516 | 25 | 348 | 6.4 | 6.4 | 0.00 | 0.30 | 0.00 | 93 | 1009.7 |
| 20260507053134 | 26 | 338 | 4.8 | 8.0 | 0.00 | 0.33 | 0.00 | 92 | 1010.0 |
| 20260507052443 | 25 | 316 | 3.2 | 3.2 | 0.00 | 0.30 | 0.00 | 92 | 1009.9 |
| 20260507052051 | 26 | 342 | 4.8 | 8.0 | 0.00 | 0.33 | 0.00 | 92 | 1010.0 |
| 20260507051410 | 25 | 336 | 3.2 | 4.8 | 0.00 | 0.30 | 0.00 | 93 | 1009.8 |
| 20260507051028 | 25 | 347 | 3.2 | 4.8 | 0.00 | 0.33 | 0.00 | 93 | 1010.1 |
| 20260507050337 | 25 | 5 | 1.6 | 3.2 | 0.00 | 0.30 | 0.00 | 93 | 1009.8 |
| 20260507050026 | 25 | 359 | 3.2 | 6.4 | 0.00 | 0.33 | 0.33 | 94 | 1010.0 |
| 20260507045306 | 25 | 53 | 1.6 | 3.2 | 0.00 | 0.30 | 0.30 | 94 | 1009.7 |
| 20260507045024 | 26 | 359 | 3.2 | 4.8 | 0.00 | 0.33 | 0.33 | 94 | 1010.1 |
| 20260507044231 | 25 | 33 | 1.6 | 3.2 | 0.00 | 0.30 | 0.30 | 93 | 1009.9 |
| 20260507044021 | 26 | 359 | 1.6 | 3.2 | 0.00 | 0.33 | 0.33 | 93 | 1010.1 |
| 20260507043158 | 25 | 0 | 0.0 | 3.2 | 0.00 | 0.30 | 0.30 | 93 | 1009.7 |
| 20260507043019 | 26 | 357 | 1.6 | 3.2 | 0.00 | 0.33 | 0.33 | 93 | 1010.1 |
| 20260507042125 | 25 | 6 | 1.6 | 3.2 | 0.00 | 0.30 | 0.30 | 93 | 1009.9 |
| 20260507042016 | 26 | 12 | 3.2 | 6.4 | 0.00 | 0.33 | 0.33 | 94 | 1010.1 |
| 20260507041052 | 26 | 0 | 0.0 | 3.2 | 0.00 | 0.30 | 0.30 | 93 | 1009.7 |
| 20260507041034 | 26 | 338 | 3.2 | 4.8 | 0.00 | 0.33 | 0.33 | 93 | 1010.0 |
| 20260507040032 | 26 | 24 | 3.2 | 4.8 | 0.00 | 0.33 | 0.33 | 92 | 1009.9 |
| 20260507040019 | 26 | 6 | 1.6 | 1.6 | 0.00 | 0.30 | 0.30 | 93 | 1009.5 |
| 20260507035110 | 26 | 19 | 3.2 | 6.4 | 0.00 | 0.33 | 0.33 | 92 | 1009.8 |
| 20260507034946 | 26 | 11 | 1.6 | 3.2 | 0.00 | 0.30 | 0.30 | 92 | 1009.5 |
| 20260507034047 | 26 | 34 | 3.2 | 4.8 | 0.00 | 0.33 | 0.33 | 92 | 1009.6 |
| 20260507033025 | 26 | 55 | 1.6 | 4.8 | 0.00 | 0.33 | 0.33 | 92 | 1009.5 |
| 20260507032840 | 26 | 0 | 0.0 | 1.6 | 0.00 | 0.30 | 0.30 | 92 | 1009.2 |
| 20260507032022 | 26 | 30 | 1.6 | 3.2 | 0.00 | 0.33 | 0.33 | 92 | 1009.4 |
| 20260507031807 | 26 | 14 | 1.6 | 3.2 | 0.00 | 0.30 | 0.30 | 92 | 1009.0 |
| 20260507031020 | 26 | 4 | 1.6 | 3.2 | 0.00 | 0.33 | 0.33 | 93 | 1009.4 |
| 20260507030607 | 26 | 0 | 0.0 | 3.2 | 0.00 | 0.30 | 0.30 | 93 | 1008.9 |
| 20260507030407 | 26 | 39 | 3.2 | 4.8 | 0.00 | 0.30 | 0.30 | 93 | 1009.0 |
| 20260507030203 | 26 | 0 | 0.0 | 1.6 | 0.00 | 0.30 | 0.30 | 93 | 1008.9 |
| 20260507030038 | 26 | 39 | 1.6 | 4.8 | 0.00 | 0.33 | 0.33 | 93 | 1009.3 |
| 20260507030003 | 26 | 0 | 0.0 | 3.2 | 0.00 | 0.30 | 0.30 | 93 | 1009.1 |
| 20260507024547 | 26 | 3 | 1.6 | 3.2 | 0.00 | 0.30 | 0.30 | 93 | 1009.0 |
| 20260507024518 | 26 | 13 | 1.6 | 4.8 | 0.00 | 0.33 | 0.33 | 92 | 1009.2 |
| 20260507024148 | 26 | 12 | 1.6 | 3.2 | 0.00 | 0.30 | 0.30 | 92 | 1008.8 |
| 20260507023947 | 26 | 343 | 1.6 | 3.2 | 0.00 | 0.30 | 0.30 | 93 | 1008.8 |
| 20260507023535 | 26 | 10 | 1.6 | 4.8 | 0.00 | 0.33 | 0.33 | 92 | 1009.1 |
| 20260507023513 | 26 | 0 | 0.0 | 1.6 | 0.00 | 0.30 | 0.30 | 92 | 1008.8 |
| 20260507022533 | 26 | 354 | 1.6 | 4.8 | 0.00 | 0.33 | 0.33 | 91 | 1009.1 |
| 20260507022440 | 26 | 341 | 3.2 | 3.2 | 0.00 | 0.30 | 0.30 | 91 | 1008.8 |
| 20260507021551 | 26 | 29 | 1.6 | 3.2 | 0.00 | 0.33 | 0.33 | 91 | 1009.1 |
| 20260507021407 | 26 | 49 | 1.6 | 3.2 | 0.00 | 0.30 | 0.30 | 91 | 1008.6 |
| 20260507020528 | 26 | 11 | 1.6 | 3.2 | 0.00 | 0.33 | 0.33 | 91 | 1008.9 |
| 20260507020334 | 26 | 0 | 0.0 | 1.6 | 0.00 | 0.30 | 0.30 | 91 | 1008.7 |
| 20260507015547 | 27 | 3 | 1.6 | 3.2 | 0.00 | 0.33 | 0.33 | 91 | 1008.8 |
| 20260507015301 | 26 | 317 | 1.6 | 1.6 | 0.00 | 0.30 | 0.30 | 91 | 1008.6 |
| 20260507014544 | 27 | 5 | 1.6 | 3.2 | 0.00 | 0.33 | 0.33 | 90 | 1008.7 |
| 20260507014228 | 26 | 41 | 1.6 | 1.6 | 0.00 | 0.30 | 0.30 | 90 | 1008.2 |
| 20260507013521 | 27 | 334 | 1.6 | 4.8 | 0.00 | 0.33 | 0.33 | 90 | 1008.7 |
| 20260507013155 | 26 | 305 | 1.6 | 3.2 | 0.00 | 0.30 | 0.30 | 90 | 1008.3 |
| 20260507012519 | 27 | 6 | 3.2 | 6.4 | 0.00 | 0.33 | 0.33 | 89 | 1008.6 |
| 20260507012122 | 27 | 301 | 3.2 | 4.8 | 0.00 | 0.30 | 0.30 | 89 | 1008.2 |
| 20260507011516 | 27 | 41 | 1.6 | 3.2 | 0.00 | 0.33 | 0.33 | 90 | 1008.6 |
| 20260507011049 | 26 | 341 | 1.6 | 3.2 | 0.00 | 0.30 | 0.30 | 90 | 1008.2 |
| 20260507010535 | 27 | 350 | 1.6 | 3.2 | 0.00 | 0.33 | 0.33 | 89 | 1008.6 |
| 20260507010016 | 26 | 0 | 0.0 | 3.2 | 0.00 | 0.30 | 0.30 | 89 | 1008.2 |
| 20260507005532 | 27 | 1 | 1.6 | 3.2 | 0.00 | 0.33 | 0.33 | 90 | 1008.5 |
| 20260507004550 | 27 | 348 | 1.6 | 4.8 | 0.00 | 0.33 | 0.33 | 89 | 1008.3 |
| 20260507003910 | 27 | 337 | 1.6 | 3.2 | 0.00 | 0.30 | 0.30 | 89 | 1007.9 |
| 20260507003527 | 27 | 342 | 3.2 | 4.8 | 0.00 | 0.33 | 0.33 | 89 | 1008.3 |
| 20260507003110 | 27 | 340 | 3.2 | 3.2 | 0.00 | 0.30 | 0.30 | 89 | 1008.0 |
| 20260507002710 | 27 | 18 | 3.2 | 3.2 | 0.00 | 0.30 | 0.30 | 89 | 1008.0 |
| 20260507002545 | 27 | 0 | 3.2 | 3.2 | 0.00 | 0.33 | 0.33 | 89 | 1008.4 |
| 20260507002510 | 27 | 357 | 3.2 | 3.2 | 0.00 | 0.30 | 0.30 | 89 | 1008.0 |
| 20260507002030 | 27 | 352 | 1.6 | 3.2 | 0.00 | 0.33 | 0.33 | 88 | 1008.3 |
| 20260507001328 | 27 | 313 | 1.6 | 3.2 | 0.00 | 0.30 | 0.30 | 89 | 1007.8 |
| 20260507001028 | 27 | 334 | 3.2 | 6.4 | 0.00 | 0.33 | 0.33 | 89 | 1008.3 |
| 20260507000255 | 27 | 348 | 3.2 | 4.8 | 0.00 | 0.30 | 0.30 | 89 | 1008.0 |
| 20260507000046 | 27 | 359 | 3.2 | 4.8 | 0.00 | 0.33 | 0.33 | 89 | 1008.3 |
| 20260506235222 | 27 | 13 | 1.6 | 1.6 | 0.00 | 0.30 | 0.30 | 89 | 1007.9 |
| 20260506235044 | 28 | 17 | 3.2 | 4.8 | 0.00 | 0.33 | 0.33 | 91 | 1008.3 |
| 20260506234149 | 27 | 0 | 0.0 | 1.6 | 0.00 | 0.30 | 0.30 | 91 | 1007.8 |
| 20260506234021 | 28 | 318 | 1.6 | 4.8 | 0.00 | 0.33 | 0.33 | 91 | 1008.1 |
| 20260506233116 | 28 | 333 | 3.2 | 3.2 | 0.00 | 0.30 | 0.30 | 90 | 1007.8 |
| 20260506233018 | 28 | 356 | 1.6 | 3.2 | 0.00 | 0.33 | 0.33 | 90 | 1008.1 |
| 20260506232056 | 28 | 358 | 3.2 | 4.8 | 0.00 | 0.33 | 0.33 | 91 | 1008.1 |
| 20260506232044 | 28 | 343 | 1.6 | 1.6 | 0.00 | 0.30 | 0.30 | 91 | 1007.6 |
| 20260506231034 | 28 | 349 | 1.6 | 4.8 | 0.00 | 0.33 | 0.33 | 91 | 1008.0 |
| 20260506231010 | 28 | 332 | 1.6 | 1.6 | 0.00 | 0.30 | 0.30 | 91 | 1007.7 |
| 20260506230032 | 28 | 345 | 3.2 | 4.8 | 0.03 | 0.33 | 0.33 | 92 | 1007.7 |
| 20260506225937 | 28 | 327 | 1.6 | 1.6 | 0.03 | 0.30 | 0.30 | 91 | 1007.3 |
| 20260506225029 | 28 | 307 | 1.6 | 3.2 | 0.05 | 0.33 | 0.33 | 92 | 1007.7 |
| 20260506224027 | 28 | 109 | 1.6 | 3.2 | 0.13 | 0.33 | 0.33 | 92 | 1007.7 |
| 20260506223831 | 28 | 0 | 0.0 | 1.6 | 0.13 | 0.30 | 0.30 | 91 | 1007.2 |
| 20260506223105 | 28 | 329 | 3.2 | 6.4 | 0.13 | 0.33 | 0.33 | 92 | 1007.6 |
| 20260506222758 | 27 | 320 | 3.2 | 4.8 | 0.13 | 0.48 | 0.30 | 92 | 1007.3 |
| 20260506222022 | 28 | 152 | 1.6 | 6.4 | 0.13 | 1.32 | 0.33 | 91 | 1007.6 |
| 20260506221725 | 27 | 151 | 3.2 | 3.2 | 0.13 | 2.59 | 0.30 | 91 | 1007.4 |
| 20260506221019 | 28 | 168 | 4.8 | 9.7 | 0.13 | 2.77 | 0.33 | 89 | 1007.4 |
| 20260506220652 | 28 | 174 | 3.2 | 4.8 | 0.10 | 2.82 | 0.30 | 89 | 1007.1 |
| 20260506220017 | 30 | 190 | 4.8 | 9.7 | 0.10 | 2.82 | 0.30 | 87 | 1007.3 |
| 20260506215619 | 30 | 183 | 4.8 | 4.8 | 0.08 | 2.79 | 0.28 | 87 | 1006.9 |
| 20260506215035 | 31 | 188 | 3.2 | 8.0 | 0.10 | 2.79 | 0.28 | 83 | 1007.2 |
| 20260506214546 | 30 | 37 | 1.6 | 3.2 | 0.00 | 2.69 | 0.20 | 82 | 1006.8 |
| 20260506214032 | 31 | 210 | 3.2 | 6.4 | 0.00 | 2.72 | 0.18 | 79 | 1007.3 |
| 20260506213513 | 31 | 180 | 1.6 | 4.8 | 0.00 | 2.69 | 0.18 | 79 | 1006.8 |
| 20260506213030 | 31 | 328 | 1.6 | 6.4 | 0.00 | 2.72 | 0.18 | 79 | 1007.1 |
| 20260506212440 | 31 | 148 | 1.6 | 3.2 | 0.00 | 2.69 | 0.18 | 79 | 1006.7 |
| 20260506212028 | 31 | 147 | 1.6 | 4.8 | 0.00 | 2.72 | 0.18 | 81 | 1007.1 |
| 20260506211407 | 30 | 211 | 1.6 | 1.6 | 0.00 | 2.69 | 0.18 | 81 | 1006.9 |
| 20260506211025 | 30 | 169 | 1.6 | 4.8 | 0.00 | 2.72 | 0.18 | 83 | 1007.0 |
| 20260506210334 | 30 | 179 | 1.6 | 3.2 | 0.00 | 2.69 | 0.18 | 85 | 1006.9 |
| 20260506210023 | 30 | 169 | 3.2 | 4.8 | 0.00 | 2.72 | 0.18 | 85 | 1007.3 |
| 20260506205301 | 30 | 168 | 1.6 | 3.2 | 0.05 | 2.69 | 0.18 | 86 | 1007.1 |
| 20260506205020 | 30 | 207 | 1.6 | 4.8 | 0.08 | 2.72 | 0.18 | 87 | 1007.5 |
| 20260506204228 | 29 | 196 | 1.6 | 3.2 | 0.05 | 2.69 | 0.18 | 87 | 1007.1 |
| 20260506204019 | 29 | 211 | 3.2 | 6.4 | 0.08 | 2.72 | 0.18 | 88 | 1007.5 |
| 20260506203036 | 29 | 201 | 3.2 | 8.0 | 0.08 | 2.72 | 0.18 | 88 | 1007.5 |
| 20260506202122 | 29 | 239 | 3.2 | 6.4 | 0.05 | 2.69 | 0.18 | 88 | 1007.3 |
| 20260506202033 | 29 | 215 | 4.8 | 6.4 | 0.08 | 2.72 | 0.18 | 87 | 1007.6 |
| 20260506201049 | 29 | 207 | 6.4 | 8.0 | 0.08 | 2.69 | 0.18 | 87 | 1007.2 |
| 20260506201031 | 29 | 207 | 4.8 | 9.7 | 0.10 | 2.72 | 0.18 | 87 | 1007.6 |
| 20260506200028 | 29 | 185 | 3.2 | 6.4 | 0.15 | 2.69 | 0.18 | 87 | 1007.6 |
| 20260506200015 | 29 | 192 | 3.2 | 3.2 | 0.13 | 2.67 | 0.18 | 87 | 1007.4 |
| 20260506195046 | 29 | 216 | 6.4 | 11.3 | 0.13 | 2.64 | 0.13 | 86 | 1007.7 |
| 20260506194943 | 29 | 180 | 3.2 | 6.4 | 0.10 | 2.62 | 0.10 | 86 | 1007.2 |
| 20260506194024 | 29 | 256 | 3.2 | 9.7 | 0.13 | 2.64 | 0.13 | 84 | 1007.6 |
| 20260506193910 | 29 | 250 | 1.6 | 4.8 | 0.10 | 2.62 | 0.10 | 84 | 1007.2 |
| 20260506193021 | 30 | 211 | 4.8 | 9.7 | 0.13 | 2.64 | 0.13 | 82 | 1007.8 |
| 20260506192837 | 30 | 211 | 4.8 | 6.4 | 0.10 | 2.62 | 0.10 | 82 | 1007.5 |
| 20260506192018 | 31 | 214 | 3.2 | 6.4 | 0.13 | 2.64 | 0.13 | 80 | 1007.9 |
| 20260506191804 | 31 | 232 | 3.2 | 3.2 | 0.10 | 2.62 | 0.10 | 81 | 1007.4 |
| 20260506191017 | 32 | 122 | 1.6 | 4.8 | 0.10 | 2.62 | 0.10 | 77 | 1007.8 |
| 20260506190731 | 31 | 0 | 0.0 | 1.6 | 0.03 | 2.57 | 0.08 | 76 | 1007.4 |
| 20260506190034 | 32 | 340 | 3.2 | 8.0 | 0.03 | 2.54 | 0.03 | 73 | 1007.9 |
| 20260506185658 | 32 | 56 | 3.2 | 6.4 | 0.00 | 2.51 | 0.00 | 72 | 1007.4 |
| 20260506185032 | 32 | 326 | 3.2 | 8.0 | 0.00 | 2.51 | 0.00 | 71 | 1008.1 |
| 20260506184625 | 32 | 26 | 1.6 | 4.8 | 0.00 | 2.51 | 0.00 | 71 | 1007.7 |
| 20260506184029 | 32 | 273 | 1.6 | 4.8 | 0.00 | 2.51 | 0.00 | 72 | 1008.3 |
| 20260506183552 | 32 | 0 | 0.0 | 3.2 | 0.00 | 2.51 | 0.00 | 73 | 1008.0 |
| 20260506183027 | 32 | 216 | 1.6 | 6.4 | 0.00 | 2.54 | 0.00 | 73 | 1008.5 |
| 20260506182519 | 32 | 218 | 3.2 | 4.8 | 0.00 | 2.62 | 0.00 | 73 | 1008.3 |
| 20260506182024 | 32 | 229 | 3.2 | 8.0 | 0.00 | 2.62 | 0.00 | 72 | 1008.7 |
| 20260506181446 | 32 | 220 | 1.6 | 3.2 | 0.00 | 2.97 | 0.00 | 71 | 1008.3 |
| 20260506181022 | 32 | 213 | 3.2 | 6.4 | 0.00 | 2.97 | 0.00 | 70 | 1008.8 |
| 20260506180646 | 32 | 201 | 4.8 | 6.4 | 0.00 | 3.07 | 0.00 | 71 | 1008.5 |
| 20260506180246 | 32 | 279 | 3.2 | 3.2 | 0.00 | 3.23 | 0.00 | 71 | 1008.4 |
| 20260506180046 | 32 | 266 | 1.6 | 1.6 | 0.00 | 3.43 | 0.00 | 70 | 1008.4 |
| 20260506180020 | 32 | 292 | 3.2 | 3.2 | 0.00 | 3.23 | 0.00 | 71 | 1008.8 |
| 20260506175018 | 32 | 148 | 4.8 | 12.9 | 0.00 | 3.58 | 0.00 | 70 | 1008.9 |
| 20260506174309 | 32 | 118 | 3.2 | 4.8 | 0.00 | 3.61 | 0.00 | 69 | 1008.7 |
| 20260506174016 | 32 | 143 | 4.8 | 9.7 | 0.00 | 3.61 | 0.00 | 69 | 1009.1 |
| 20260506173236 | 32 | 205 | 1.6 | 4.8 | 0.00 | 3.61 | 0.00 | 69 | 1008.7 |
| 20260506173035 | 32 | 187 | 4.8 | 14.5 | 0.00 | 3.61 | 0.00 | 70 | 1009.2 |
| 20260506172203 | 32 | 128 | 1.6 | 3.2 | 0.00 | 3.61 | 0.00 | 70 | 1008.8 |
| 20260506172031 | 32 | 101 | 3.2 | 8.0 | 0.00 | 3.61 | 0.00 | 71 | 1009.4 |
| 20260506171130 | 31 | 0 | 0.0 | 3.2 | 0.00 | 3.61 | 0.00 | 72 | 1009.0 |
| 20260506171029 | 32 | 224 | 3.2 | 6.4 | 0.00 | 3.61 | 0.00 | 72 | 1009.6 |
| 20260506170057 | 31 | 172 | 6.4 | 9.7 | 0.00 | 3.61 | 0.00 | 72 | 1009.2 |
| 20260506170026 | 32 | 131 | 6.4 | 17.7 | 0.00 | 3.61 | 0.00 | 71 | 1009.7 |
| 20260506165024 | 32 | 173 | 6.4 | 9.7 | 0.00 | 3.63 | 0.00 | 71 | 1009.6 |
| 20260506164022 | 32 | 155 | 6.4 | 11.3 | 0.00 | 3.68 | 0.00 | 71 | 1009.8 |
| 20260506163951 | 32 | 125 | 6.4 | 9.7 | 0.00 | 3.68 | 0.00 | 71 | 1009.5 |
| 20260506163040 | 32 | 172 | 9.7 | 17.7 | 0.00 | 3.68 | 0.00 | 70 | 1009.8 |
| 20260506162918 | 32 | 228 | 6.4 | 11.3 | 0.00 | 3.71 | 0.00 | 70 | 1009.5 |